San Francisco International Airport
KSFO : now visible

Airfield :











YOU CAN JOIN US ON...

 
LOGIN :

Register | Disclaimer

   EN    FR    IT 

 









Legend :    VFR   Marginal VFR   IFR   Intensive IFR   Very Intensive IFR
Visi :
Ceiling :
>= 8 km
>= 3000ft
5 to 8 km
1000 to 3000 ft
1500m to 5 km
500 to 1000 ft
800 to 1500m
200 to 500 ft
< 800m
< 200 ft
Symbols :   Thunderstorms  Fog  Heavy snow  Heavy precipitations  Wind > 20 kt






- Airport Elevation : 13 ft
- IATA code : SFO


KSFO - San Francisco International

CURRENT METAR :
  • 042156Z COR 03004KT 9SM CLR 16/09 A3018 RMK AO2 SLP221 T01560089

EXPIRED METARs :
  • 042056Z 03004KT 9SM FEW005 15/09 A3021 RMK AO2 SLP231 T01500089 58029
  • 041956Z 06004KT 8SM FEW005 14/08 A3025 RMK AO2 SLP243 T01440078

TAF KSFO
Valid from the 04 at 21:00 until the 06 at 00:00 UTC


042101Z 0421/0524 VRB04KT P6SM FEW005
FM050100 29007KT P6SM FEW200
FM050500 VRB03KT P6SM FEW200
FM051900 30008KT P6SM FEW008 SCT200
KZOA FIR / North America



MET'MAP, your aeronautical weather chart ! - Copyright ORBIFLY December 2007 - Disclaimer

ORBIFLY MET'MAP TEAM :

Programming & Development : Alexandra Zaïnal
Concept & original design : Baudouin d'Aumeries
Assistance for programming : Marc-Olivier Méhu
Technical & hardware support : Manuel Goepfert

Contact : metmap@orbifly.com




SOURCES & CREDITS :

   NOAA       Earth
Advisory